sensor_id;sensor_type;location;lat;lon;timestamp;noise_LAeq;noise_LA_min;noise_LA_max;noise_LA01;noise_LA95
52872;Laerm;40124;52.198;9.902;2023-05-08T00:00:21;54.31;38.05;73.29;;
52872;Laerm;40124;52.198;9.902;2023-05-08T00:02:46;61.10;38.81;82.15;;
52872;Laerm;40124;52.198;9.902;2023-05-08T00:05:12;41.22;38.37;43.44;;
52872;Laerm;40124;52.198;9.902;2023-05-08T00:07:37;41.34;38.18;43.49;;
52872;Laerm;40124;52.198;9.902;2023-05-08T00:10:03;41.08;38.21;43.44;;
52872;Laerm;40124;52.198;9.902;2023-05-08T00:12:28;41.13;38.02;43.24;;
52872;Laerm;40124;52.198;9.902;2023-05-08T00:14:53;41.15;37.52;43.19;;
52872;Laerm;40124;52.198;9.902;2023-05-08T00:17:18;61.95;38.67;82.70;;
52872;Laerm;40124;52.198;9.902;2023-05-08T00:19:44;57.75;38.95;78.36;;
52872;Laerm;40124;52.198;9.902;2023-05-08T00:22:09;41.37;38.37;48.48;;
52872;Laerm;40124;52.198;9.902;2023-05-08T00:24:35;41.23;38.05;43.34;;
52872;Laerm;40124;52.198;9.902;2023-05-08T00:27:00;41.30;38.21;43.49;;
52872;Laerm;40124;52.198;9.902;2023-05-08T00:29:25;41.12;38.21;43.24;;
52872;Laerm;40124;52.198;9.902;2023-05-08T00:31:50;59.30;37.32;79.73;;
52872;Laerm;40124;52.198;9.902;2023-05-08T00:34:15;58.93;37.88;79.26;;
52872;Laerm;40124;52.198;9.902;2023-05-08T00:36:41;68.78;39.70;89.09;;
52872;Laerm;40124;52.198;9.902;2023-05-08T00:39:06;60.23;38.95;80.46;;
52872;Laerm;40124;52.198;9.902;2023-05-08T00:41:31;41.00;38.05;44.51;;
52872;Laerm;40124;52.198;9.902;2023-05-08T00:43:57;41.12;38.37;47.40;;
52872;Laerm;40124;52.198;9.902;2023-05-08T00:46:22;60.67;38.37;82.51;;
52872;Laerm;40124;52.198;9.902;2023-05-08T00:48:47;58.73;37.88;79.55;;
52872;Laerm;40124;52.198;9.902;2023-05-08T00:51:12;41.30;38.21;44.58;;
52872;Laerm;40124;52.198;9.902;2023-05-08T00:53:40;41.59;38.05;45.51;;
52872;Laerm;40124;52.198;9.902;2023-05-08T00:56:07;40.97;38.21;48.84;;
52872;Laerm;40124;52.198;9.902;2023-05-08T00:58:34;40.97;38.21;43.19;;
52872;Laerm;40124;52.198;9.902;2023-05-08T01:00:59;40.71;37.52;43.34;;
52872;Laerm;40124;52.198;9.902;2023-05-08T01:03:24;56.18;38.81;76.43;;
52872;Laerm;40124;52.198;9.902;2023-05-08T01:05:50;40.87;38.05;45.42;;
52872;Laerm;40124;52.198;9.902;2023-05-08T01:08:15;41.29;37.88;44.54;;
52872;Laerm;40124;52.198;9.902;2023-05-08T01:10:46;41.05;37.32;43.54;;
52872;Laerm;40124;52.198;9.902;2023-05-08T01:16:02;58.65;38.81;80.37;;
52872;Laerm;40124;52.198;9.902;2023-05-08T01:19:18;41.84;38.52;48.52;;
52872;Laerm;40124;52.198;9.902;2023-05-08T01:21:40;42.00;39.21;47.48;;
52872;Laerm;40124;52.198;9.902;2023-05-08T01:32:19;56.91;38.81;79.01;;
52872;Laerm;40124;52.198;9.902;2023-05-08T01:35:02;41.36;38.21;43.44;;
52872;Laerm;40124;52.198;9.902;2023-05-08T01:40:32;41.94;38.81;47.59;;
52872;Laerm;40124;52.198;9.902;2023-05-08T01:43:09;59.44;38.05;80.33;;
52872;Laerm;40124;52.198;9.902;2023-05-08T01:45:37;58.33;38.37;78.75;;
52872;Laerm;40124;52.198;9.902;2023-05-08T01:48:04;43.57;38.74;58.33;;
52872;Laerm;40124;52.198;9.902;2023-05-08T01:50:33;57.77;38.67;78.89;;
52872;Laerm;40124;52.198;9.902;2023-05-08T01:53:04;41.54;38.21;45.66;;
52872;Laerm;40124;52.198;9.902;2023-05-08T01:55:33;67.28;39.46;87.81;;
52872;Laerm;40124;52.198;9.902;2023-05-08T01:57:59;58.82;39.21;80.12;;
52872;Laerm;40124;52.198;9.902;2023-05-08T02:00:26;58.59;39.81;79.39;;
52872;Laerm;40124;52.198;9.902;2023-05-08T02:02:52;42.53;38.21;54.44;;
52872;Laerm;40124;52.198;9.902;2023-05-08T02:05:18;40.73;37.70;43.09;;
52872;Laerm;40124;52.198;9.902;2023-05-08T02:07:45;57.82;38.37;77.83;;
52872;Laerm;40124;52.198;9.902;2023-05-08T02:10:11;61.89;37.52;79.87;;
52872;Laerm;40124;52.198;9.902;2023-05-08T02:12:37;40.99;37.52;43.29;;
52872;Laerm;40124;52.198;9.902;2023-05-08T02:15:04;41.37;38.67;55.10;;
52872;Laerm;40124;52.198;9.902;2023-05-08T02:17:29;57.01;37.52;76.99;;
52872;Laerm;40124;52.198;9.902;2023-05-08T02:19:56;41.37;38.81;43.44;;
52872;Laerm;40124;52.198;9.902;2023-05-08T02:22:22;57.95;39.08;78.32;;
52872;Laerm;40124;52.198;9.902;2023-05-08T02:24:48;41.99;38.21;54.67;;
52872;Laerm;40124;52.198;9.902;2023-05-08T02:27:17;60.62;38.37;80.78;;
52872;Laerm;40124;52.198;9.902;2023-05-08T02:29:43;65.10;39.21;88.47;;
52872;Laerm;40124;52.198;9.902;2023-05-08T02:32:08;67.07;39.08;86.34;;
52872;Laerm;40124;52.198;9.902;2023-05-08T02:34:33;56.18;39.78;76.58;;
52872;Laerm;40124;52.198;9.902;2023-05-08T02:37:00;64.24;41.53;84.47;;
52872;Laerm;40124;52.198;9.902;2023-05-08T02:39:26;64.28;41.55;81.24;;
52872;Laerm;40124;52.198;9.902;2023-05-08T02:41:54;64.64;41.06;82.07;;
52872;Laerm;40124;52.198;9.902;2023-05-08T02:44:19;60.74;40.80;81.01;;
52872;Laerm;40124;52.198;9.902;2023-05-08T02:49:23;68.07;41.53;82.92;;
52872;Laerm;40124;52.198;9.902;2023-05-08T02:51:53;63.39;41.06;80.87;;
52872;Laerm;40124;52.198;9.902;2023-05-08T02:54:27;63.93;41.82;80.75;;
52872;Laerm;40124;52.198;9.902;2023-05-08T02:56:57;68.65;43.04;85.81;;
52872;Laerm;40124;52.198;9.902;2023-05-08T03:01:58;68.09;41.14;84.13;;
52872;Laerm;40124;52.198;9.902;2023-05-08T03:04:30;64.94;41.14;82.02;;
52872;Laerm;40124;52.198;9.902;2023-05-08T03:06:56;69.82;43.68;86.57;;
52872;Laerm;40124;52.198;9.902;2023-05-08T03:09:22;65.83;42.16;85.80;;
52872;Laerm;40124;52.198;9.902;2023-05-08T03:11:50;57.03;40.89;74.74;;
52872;Laerm;40124;52.198;9.902;2023-05-08T03:14:18;63.13;42.98;79.68;;
52872;Laerm;40124;52.198;9.902;2023-05-08T03:16:44;63.03;42.76;78.96;;
52872;Laerm;40124;52.198;9.902;2023-05-08T03:19:27;69.69;44.03;88.55;;
52872;Laerm;40124;52.198;9.902;2023-05-08T03:22:00;69.05;45.20;82.40;;
52872;Laerm;40124;52.198;9.902;2023-05-08T03:24:26;69.01;45.30;82.88;;
52872;Laerm;40124;52.198;9.902;2023-05-08T03:26:52;69.54;44.35;84.08;;
52872;Laerm;40124;52.198;9.902;2023-05-08T03:29:18;69.05;44.62;82.08;;
52872;Laerm;40124;52.198;9.902;2023-05-08T03:31:44;71.16;46.76;83.51;;
52872;Laerm;40124;52.198;9.902;2023-05-08T03:34:11;67.47;43.24;81.20;;
52872;Laerm;40124;52.198;9.902;2023-05-08T03:36:36;68.53;44.19;83.96;;
52872;Laerm;40124;52.198;9.902;2023-05-08T03:39:01;71.05;48.18;83.04;;
52872;Laerm;40124;52.198;9.902;2023-05-08T03:41:27;67.95;44.19;80.62;;
52872;Laerm;40124;52.198;9.902;2023-05-08T03:43:53;68.11;43.34;82.70;;
52872;Laerm;40124;52.198;9.902;2023-05-08T03:46:18;69.28;46.45;83.09;;
52872;Laerm;40124;52.198;9.902;2023-05-08T03:48:44;70.88;43.81;85.81;;
52872;Laerm;40124;52.198;9.902;2023-05-08T03:51:11;69.26;43.39;84.99;;
52872;Laerm;40124;52.198;9.902;2023-05-08T03:53:36;68.31;44.35;82.96;;
52872;Laerm;40124;52.198;9.902;2023-05-08T03:56:01;66.20;44.58;80.04;;
52872;Laerm;40124;52.198;9.902;2023-05-08T03:58:31;72.48;44.03;87.20;;
52872;Laerm;40124;52.198;9.902;2023-05-08T04:03:53;69.32;45.04;81.67;;
52872;Laerm;40124;52.198;9.902;2023-05-08T04:08:50;73.42;43.94;92.41;;
52872;Laerm;40124;52.198;9.902;2023-05-08T04:11:29;70.92;45.97;92.89;;
52872;Laerm;40124;52.198;9.902;2023-05-08T04:13:56;71.79;48.28;86.67;;
52872;Laerm;40124;52.198;9.902;2023-05-08T04:16:25;71.08;47.59;80.54;;
52872;Laerm;40124;52.198;9.902;2023-05-08T04:18:53;70.36;47.86;83.24;;
52872;Laerm;40124;52.198;9.902;2023-05-08T04:21:22;69.85;46.40;81.26;;
52872;Laerm;40124;52.198;9.902;2023-05-08T04:23:49;70.59;47.14;84.54;;
52872;Laerm;40124;52.198;9.902;2023-05-08T04:26:15;71.76;47.30;82.60;;
52872;Laerm;40124;52.198;9.902;2023-05-08T04:28:40;70.31;45.07;84.06;;
52872;Laerm;40124;52.198;9.902;2023-05-08T04:31:06;72.15;46.73;85.32;;
52872;Laerm;40124;52.198;9.902;2023-05-08T04:33:32;70.60;49.73;81.98;;
52872;Laerm;40124;52.198;9.902;2023-05-08T04:35:59;70.60;45.36;84.10;;
52872;Laerm;40124;52.198;9.902;2023-05-08T04:38:25;70.75;45.27;83.15;;
52872;Laerm;40124;52.198;9.902;2023-05-08T04:40:50;70.94;45.72;82.87;;
52872;Laerm;40124;52.198;9.902;2023-05-08T04:43:15;72.30;47.46;88.37;;
52872;Laerm;40124;52.198;9.902;2023-05-08T04:45:40;70.70;48.58;82.10;;
52872;Laerm;40124;52.198;9.902;2023-05-08T04:48:05;73.24;50.69;83.52;;
52872;Laerm;40124;52.198;9.902;2023-05-08T04:50:30;73.91;52.04;87.65;;
52872;Laerm;40124;52.198;9.902;2023-05-08T04:52:55;73.25;51.82;88.80;;
52872;Laerm;40124;52.198;9.902;2023-05-08T04:55:21;71.68;47.77;85.52;;
52872;Laerm;40124;52.198;9.902;2023-05-08T04:57:46;73.33;47.14;85.92;;
52872;Laerm;40124;52.198;9.902;2023-05-08T05:00:11;69.88;45.72;80.53;;
52872;Laerm;40124;52.198;9.902;2023-05-08T05:02:36;71.09;46.25;84.09;;
52872;Laerm;40124;52.198;9.902;2023-05-08T05:05:02;70.70;46.84;80.56;;
52872;Laerm;40124;52.198;9.902;2023-05-08T05:07:27;71.29;47.38;82.23;;
52872;Laerm;40124;52.198;9.902;2023-05-08T05:09:52;73.11;52.48;84.89;;
52872;Laerm;40124;52.198;9.902;2023-05-08T05:12:17;73.16;49.21;87.59;;
52872;Laerm;40124;52.198;9.902;2023-05-08T05:14:42;72.12;51.83;83.86;;
52872;Laerm;40124;52.198;9.902;2023-05-08T05:17:07;72.26;49.57;85.17;;
52872;Laerm;40124;52.198;9.902;2023-05-08T05:19:32;73.05;47.70;86.50;;
52872;Laerm;40124;52.198;9.902;2023-05-08T05:21:58;73.06;46.35;88.37;;
52872;Laerm;40124;52.198;9.902;2023-05-08T05:24:23;72.71;46.95;87.80;;
52872;Laerm;40124;52.198;9.902;2023-05-08T05:26:49;73.17;47.76;86.11;;
52872;Laerm;40124;52.198;9.902;2023-05-08T05:29:14;71.47;51.69;80.96;;
52872;Laerm;40124;52.198;9.902;2023-05-08T05:31:39;72.10;43.86;83.99;;
52872;Laerm;40124;52.198;9.902;2023-05-08T05:34:04;73.33;51.41;85.70;;
52872;Laerm;40124;52.198;9.902;2023-05-08T05:36:29;75.28;51.22;92.21;;
52872;Laerm;40124;52.198;9.902;2023-05-08T05:38:55;72.58;47.12;82.23;;
52872;Laerm;40124;52.198;9.902;2023-05-08T05:41:20;71.54;50.23;82.76;;
52872;Laerm;40124;52.198;9.902;2023-05-08T05:43:46;73.41;56.39;85.47;;
52872;Laerm;40124;52.198;9.902;2023-05-08T05:46:11;71.91;44.19;87.44;;
52872;Laerm;40124;52.198;9.902;2023-05-08T05:48:36;69.62;44.54;80.29;;
52872;Laerm;40124;52.198;9.902;2023-05-08T05:51:01;72.98;51.55;85.09;;
52872;Laerm;40124;52.198;9.902;2023-05-08T05:53:27;73.85;52.42;83.93;;
52872;Laerm;40124;52.198;9.902;2023-05-08T05:55:52;70.79;44.62;83.92;;
52872;Laerm;40124;52.198;9.902;2023-05-08T05:58:17;73.76;50.27;86.58;;
52872;Laerm;40124;52.198;9.902;2023-05-08T06:00:43;70.11;46.52;81.17;;
52872;Laerm;40124;52.198;9.902;2023-05-08T06:03:08;71.22;47.14;87.55;;
52872;Laerm;40124;52.198;9.902;2023-05-08T06:05:34;71.34;48.35;81.62;;
52872;Laerm;40124;52.198;9.902;2023-05-08T06:07:59;71.22;45.94;82.99;;
52872;Laerm;40124;52.198;9.902;2023-05-08T06:10:25;71.17;50.30;82.32;;
52872;Laerm;40124;52.198;9.902;2023-05-08T06:12:50;70.14;46.59;82.51;;
52872;Laerm;40124;52.198;9.902;2023-05-08T06:15:15;70.03;48.31;81.28;;
52872;Laerm;40124;52.198;9.902;2023-05-08T06:17:40;68.55;48.95;81.21;;
52872;Laerm;40124;52.198;9.902;2023-05-08T06:20:06;69.23;46.07;80.69;;
52872;Laerm;40124;52.198;9.902;2023-05-08T06:22:32;70.00;45.27;83.70;;
52872;Laerm;40124;52.198;9.902;2023-05-08T06:24:57;70.99;46.05;83.03;;
52872;Laerm;40124;52.198;9.902;2023-05-08T06:27:22;71.94;47.46;84.38;;
52872;Laerm;40124;52.198;9.902;2023-05-08T06:29:48;69.83;49.18;84.19;;
52872;Laerm;40124;52.198;9.902;2023-05-08T06:32:15;71.97;47.74;84.59;;
52872;Laerm;40124;52.198;9.902;2023-05-08T06:34:40;67.72;45.39;81.66;;
52872;Laerm;40124;52.198;9.902;2023-05-08T06:37:06;70.18;49.08;81.84;;
52872;Laerm;40124;52.198;9.902;2023-05-08T06:39:31;70.98;48.10;84.32;;
52872;Laerm;40124;52.198;9.902;2023-05-08T06:41:56;72.91;50.16;89.69;;
52872;Laerm;40124;52.198;9.902;2023-05-08T06:44:21;69.46;51.67;82.91;;
52872;Laerm;40124;52.198;9.902;2023-05-08T06:46:46;68.24;43.64;81.55;;
52872;Laerm;40124;52.198;9.902;2023-05-08T06:49:11;70.04;53.62;82.19;;
52872;Laerm;40124;52.198;9.902;2023-05-08T06:51:36;70.82;44.87;82.44;;
52872;Laerm;40124;52.198;9.902;2023-05-08T06:54:03;68.99;44.31;81.95;;
52872;Laerm;40124;52.198;9.902;2023-05-08T06:56:31;67.03;48.13;83.06;;
52872;Laerm;40124;52.198;9.902;2023-05-08T06:58:56;68.09;44.03;82.97;;
52872;Laerm;40124;52.198;9.902;2023-05-08T07:01:22;69.74;46.69;86.57;;
52872;Laerm;40124;52.198;9.902;2023-05-08T07:03:47;69.63;45.07;85.51;;
52872;Laerm;40124;52.198;9.902;2023-05-08T07:06:12;70.33;48.78;82.80;;
52872;Laerm;40124;52.198;9.902;2023-05-08T07:08:37;68.31;43.19;85.16;;
52872;Laerm;40124;52.198;9.902;2023-05-08T07:11:02;66.38;44.69;80.13;;
52872;Laerm;40124;52.198;9.902;2023-05-08T07:13:27;70.40;48.00;84.75;;
52872;Laerm;40124;52.198;9.902;2023-05-08T07:15:53;67.62;44.51;79.67;;
52872;Laerm;40124;52.198;9.902;2023-05-08T07:18:18;68.52;45.89;85.39;;
52872;Laerm;40124;52.198;9.902;2023-05-08T07:20:43;68.91;44.31;80.77;;
52872;Laerm;40124;52.198;9.902;2023-05-08T07:23:09;69.17;43.81;86.93;;
52872;Laerm;40124;52.198;9.902;2023-05-08T07:25:34;66.34;45.57;78.66;;
52872;Laerm;40124;52.198;9.902;2023-05-08T07:27:59;66.39;42.98;79.41;;
52872;Laerm;40124;52.198;9.902;2023-05-08T07:30:24;70.85;44.65;91.84;;
52872;Laerm;40124;52.198;9.902;2023-05-08T07:32:50;67.71;45.91;79.61;;
52872;Laerm;40124;52.198;9.902;2023-05-08T07:35:15;69.09;45.01;85.51;;
52872;Laerm;40124;52.198;9.902;2023-05-08T07:37:40;71.52;46.10;85.83;;
52872;Laerm;40124;52.198;9.902;2023-05-08T07:40:05;65.79;43.24;83.03;;
52872;Laerm;40124;52.198;9.902;2023-05-08T07:42:36;67.91;47.10;81.74;;
52872;Laerm;40124;52.198;9.902;2023-05-08T07:45:01;68.70;46.59;83.15;;
52872;Laerm;40124;52.198;9.902;2023-05-08T07:47:26;65.76;43.86;79.49;;
52872;Laerm;40124;52.198;9.902;2023-05-08T07:49:53;70.30;47.55;83.91;;
52872;Laerm;40124;52.198;9.902;2023-05-08T07:52:18;68.02;45.36;78.95;;
52872;Laerm;40124;52.198;9.902;2023-05-08T07:54:43;68.89;46.48;86.10;;
52872;Laerm;40124;52.198;9.902;2023-05-08T07:57:08;69.11;49.67;82.00;;
52872;Laerm;40124;52.198;9.902;2023-05-08T07:59:33;67.33;48.21;80.34;;
52872;Laerm;40124;52.198;9.902;2023-05-08T08:01:59;67.44;47.38;79.72;;
52872;Laerm;40124;52.198;9.902;2023-05-08T08:04:24;69.24;44.83;85.48;;
52872;Laerm;40124;52.198;9.902;2023-05-08T08:06:49;67.25;44.54;80.77;;
52872;Laerm;40124;52.198;9.902;2023-05-08T08:09:14;68.40;44.62;82.99;;
52872;Laerm;40124;52.198;9.902;2023-05-08T08:11:39;70.92;44.35;89.05;;
52872;Laerm;40124;52.198;9.902;2023-05-08T08:14:05;70.55;49.21;84.47;;
52872;Laerm;40124;52.198;9.902;2023-05-08T08:16:30;69.50;51.85;85.17;;
52872;Laerm;40124;52.198;9.902;2023-05-08T08:18:55;69.28;44.51;84.59;;
52872;Laerm;40124;52.198;9.902;2023-05-08T08:21:20;67.83;45.97;80.70;;
52872;Laerm;40124;52.198;9.902;2023-05-08T08:23:45;69.35;44.23;85.17;;
52872;Laerm;40124;52.198;9.902;2023-05-08T08:26:11;70.15;44.97;87.78;;
52872;Laerm;40124;52.198;9.902;2023-05-08T08:28:36;68.69;48.20;86.28;;
52872;Laerm;40124;52.198;9.902;2023-05-08T08:31:01;76.33;43.86;106.35;;
52872;Laerm;40124;52.198;9.902;2023-05-08T08:33:27;69.70;48.78;83.39;;
52872;Laerm;40124;52.198;9.902;2023-05-08T08:35:52;69.37;45.01;84.54;;
52872;Laerm;40124;52.198;9.902;2023-05-08T08:38:17;67.21;43.24;79.26;;
52872;Laerm;40124;52.198;9.902;2023-05-08T08:40:42;68.33;47.70;82.91;;
52872;Laerm;40124;52.198;9.902;2023-05-08T08:43:08;66.03;43.86;80.09;;
52872;Laerm;40124;52.198;9.902;2023-05-08T08:45:34;71.63;42.74;97.19;;
52872;Laerm;40124;52.198;9.902;2023-05-08T08:48:01;68.29;44.76;79.83;;
52872;Laerm;40124;52.198;9.902;2023-05-08T08:50:27;68.29;45.37;81.88;;
52872;Laerm;40124;52.198;9.902;2023-05-08T08:52:55;70.33;45.30;83.19;;
52872;Laerm;40124;52.198;9.902;2023-05-08T08:55:24;67.66;45.57;84.59;;
52872;Laerm;40124;52.198;9.902;2023-05-08T09:00:29;71.70;47.42;87.27;;
52872;Laerm;40124;52.198;9.902;2023-05-08T09:02:55;70.39;47.96;84.78;;
52872;Laerm;40124;52.198;9.902;2023-05-08T09:05:21;68.96;43.81;82.33;;
52872;Laerm;40124;52.198;9.902;2023-05-08T09:07:47;67.99;46.18;81.00;;
52872;Laerm;40124;52.198;9.902;2023-05-08T09:10:13;68.09;46.93;79.60;;
52872;Laerm;40124;52.198;9.902;2023-05-08T09:12:39;66.16;42.85;77.02;;
52872;Laerm;40124;52.198;9.902;2023-05-08T09:15:05;68.22;42.71;79.87;;
52872;Laerm;40124;52.198;9.902;2023-05-08T09:17:30;69.82;44.94;87.95;;
52872;Laerm;40124;52.198;9.902;2023-05-08T09:19:55;72.30;46.18;87.43;;
52872;Laerm;40124;52.198;9.902;2023-05-08T09:22:21;70.30;45.27;84.30;;
52872;Laerm;40124;52.198;9.902;2023-05-08T09:24:54;68.86;47.59;85.53;;
52872;Laerm;40124;52.198;9.902;2023-05-08T09:27:23;72.21;43.77;96.37;;
52872;Laerm;40124;52.198;9.902;2023-05-08T09:30:10;68.94;46.87;82.90;;
52872;Laerm;40124;52.198;9.902;2023-05-08T09:32:39;71.16;46.62;86.39;;
52872;Laerm;40124;52.198;9.902;2023-05-08T09:35:05;67.79;47.16;81.98;;
52872;Laerm;40124;52.198;9.902;2023-05-08T09:37:31;65.92;44.56;79.52;;
52872;Laerm;40124;52.198;9.902;2023-05-08T09:42:40;70.46;46.40;86.53;;
52872;Laerm;40124;52.198;9.902;2023-05-08T09:45:05;70.46;47.48;86.52;;
52872;Laerm;40124;52.198;9.902;2023-05-08T09:47:31;68.00;48.51;82.70;;
52872;Laerm;40124;52.198;9.902;2023-05-08T09:50:08;68.17;43.58;85.03;;
52872;Laerm;40124;52.198;9.902;2023-05-08T09:52:38;68.61;45.57;85.53;;
52872;Laerm;40124;52.198;9.902;2023-05-08T09:55:10;65.07;45.11;76.28;;
52872;Laerm;40124;52.198;9.902;2023-05-08T09:57:39;69.03;42.29;85.30;;
52872;Laerm;40124;52.198;9.902;2023-05-08T10:02:30;66.39;44.43;77.92;;
52872;Laerm;40124;52.198;9.902;2023-05-08T10:04:55;64.39;44.83;78.43;;
52872;Laerm;40124;52.198;9.902;2023-05-08T10:07:31;66.73;44.19;79.72;;
52872;Laerm;40124;52.198;9.902;2023-05-08T10:09:57;66.65;44.19;80.47;;
52872;Laerm;40124;52.198;9.902;2023-05-08T10:12:23;70.97;50.13;87.11;;
52872;Laerm;40124;52.198;9.902;2023-05-08T10:14:49;66.34;44.47;80.10;;
52872;Laerm;40124;52.198;9.902;2023-05-08T10:17:14;69.90;46.35;87.31;;
52872;Laerm;40124;52.198;9.902;2023-05-08T10:19:45;64.84;41.89;78.31;;
52872;Laerm;40124;52.198;9.902;2023-05-08T10:22:12;67.77;44.87;80.01;;
52872;Laerm;40124;52.198;9.902;2023-05-08T10:24:40;69.10;47.38;84.08;;
52872;Laerm;40124;52.198;9.902;2023-05-08T10:27:09;66.68;46.30;80.77;;
52872;Laerm;40124;52.198;9.902;2023-05-08T10:29:59;65.72;46.30;78.31;;
52872;Laerm;40124;52.198;9.902;2023-05-08T10:32:22;70.36;49.25;86.27;;
52872;Laerm;40124;52.198;9.902;2023-05-08T10:34:52;74.52;46.87;93.38;;
52872;Laerm;40124;52.198;9.902;2023-05-08T10:37:20;69.88;47.10;84.66;;
52872;Laerm;40124;52.198;9.902;2023-05-08T10:39:45;68.89;47.95;81.34;;
52872;Laerm;40124;52.198;9.902;2023-05-08T10:42:12;69.01;46.50;82.52;;
52872;Laerm;40124;52.198;9.902;2023-05-08T10:44:37;67.57;43.54;82.08;;
52872;Laerm;40124;52.198;9.902;2023-05-08T10:47:15;70.76;47.43;85.43;;
52872;Laerm;40124;52.198;9.902;2023-05-08T10:58:04;70.54;46.55;87.10;;
52872;Laerm;40124;52.198;9.902;2023-05-08T11:00:30;70.48;49.14;84.94;;
52872;Laerm;40124;52.198;9.902;2023-05-08T11:03:03;66.79;47.55;81.01;;
52872;Laerm;40124;52.198;9.902;2023-05-08T11:05:28;68.29;48.52;83.31;;
52872;Laerm;40124;52.198;9.902;2023-05-08T11:07:57;70.52;49.79;81.85;;
52872;Laerm;40124;52.198;9.902;2023-05-08T11:10:28;69.65;48.76;82.47;;
52872;Laerm;40124;52.198;9.902;2023-05-08T11:12:54;69.18;46.38;81.27;;
52872;Laerm;40124;52.198;9.902;2023-05-08T11:15:34;69.88;46.33;87.49;;
52872;Laerm;40124;52.198;9.902;2023-05-08T11:17:59;70.87;45.91;86.19;;
52872;Laerm;40124;52.198;9.902;2023-05-08T11:20:36;71.15;44.19;87.77;;
52872;Laerm;40124;52.198;9.902;2023-05-08T11:23:13;71.33;49.63;90.33;;
52872;Laerm;40124;52.198;9.902;2023-05-08T11:25:45;70.18;45.94;83.47;;
52872;Laerm;40124;52.198;9.902;2023-05-08T11:28:10;69.81;45.17;84.16;;
52872;Laerm;40124;52.198;9.902;2023-05-08T11:30:35;68.16;45.75;80.47;;
52872;Laerm;40124;52.198;9.902;2023-05-08T11:38:18;74.06;46.22;89.84;;
52872;Laerm;40124;52.198;9.902;2023-05-08T11:41:28;72.50;46.87;84.78;;
52872;Laerm;40124;52.198;9.902;2023-05-08T11:46:06;69.37;44.39;81.35;;
52872;Laerm;40124;52.198;9.902;2023-05-08T11:48:37;70.60;45.94;83.20;;
52872;Laerm;40124;52.198;9.902;2023-05-08T11:51:02;70.54;51.76;81.88;;
52872;Laerm;40124;52.198;9.902;2023-05-08T11:53:27;73.26;45.33;87.03;;
52872;Laerm;40124;52.198;9.902;2023-05-08T11:55:54;70.76;44.83;84.02;;
52872;Laerm;40124;52.198;9.902;2023-05-08T11:58:19;70.70;46.48;84.47;;
52872;Laerm;40124;52.198;9.902;2023-05-08T12:00:45;82.82;52.20;110.34;;
52872;Laerm;40124;52.198;9.902;2023-05-08T12:03:11;70.93;45.54;83.85;;
52872;Laerm;40124;52.198;9.902;2023-05-08T12:05:37;72.13;53.68;87.01;;
52872;Laerm;40124;52.198;9.902;2023-05-08T12:08:04;69.55;45.97;81.32;;
52872;Laerm;40124;52.198;9.902;2023-05-08T12:10:30;70.49;44.80;87.69;;
52872;Laerm;40124;52.198;9.902;2023-05-08T12:12:55;75.24;43.68;93.06;;
52872;Laerm;40124;52.198;9.902;2023-05-08T12:15:20;78.44;46.93;99.94;;
52872;Laerm;40124;52.198;9.902;2023-05-08T12:17:46;72.43;49.28;84.85;;
52872;Laerm;40124;52.198;9.902;2023-05-08T12:20:15;71.46;49.67;80.96;;
52872;Laerm;40124;52.198;9.902;2023-05-08T12:22:41;69.40;43.94;80.00;;
52872;Laerm;40124;52.198;9.902;2023-05-08T12:25:06;68.34;47.46;80.35;;
52872;Laerm;40124;52.198;9.902;2023-05-08T12:27:32;72.74;47.44;91.74;;
52872;Laerm;40124;52.198;9.902;2023-05-08T12:29:58;68.17;46.07;80.42;;
52872;Laerm;40124;52.198;9.902;2023-05-08T12:32:23;71.65;44.11;84.91;;
52872;Laerm;40124;52.198;9.902;2023-05-08T12:34:48;69.88;46.45;83.78;;
52872;Laerm;40124;52.198;9.902;2023-05-08T12:37:26;69.83;47.50;81.17;;
52872;Laerm;40124;52.198;9.902;2023-05-08T12:39:51;69.21;44.62;80.40;;
52872;Laerm;40124;52.198;9.902;2023-05-08T12:42:16;70.39;44.01;81.99;;
52872;Laerm;40124;52.198;9.902;2023-05-08T12:44:41;69.73;41.75;81.74;;
52872;Laerm;40124;52.198;9.902;2023-05-08T12:47:13;69.51;46.89;81.37;;
52872;Laerm;40124;52.198;9.902;2023-05-08T12:49:38;71.86;46.23;82.68;;
52872;Laerm;40124;52.198;9.902;2023-05-08T12:54:36;70.86;47.18;87.85;;
52872;Laerm;40124;52.198;9.902;2023-05-08T12:57:06;75.08;54.40;90.18;;
52872;Laerm;40124;52.198;9.902;2023-05-08T12:59:32;70.77;45.27;85.39;;
52872;Laerm;40124;52.198;9.902;2023-05-08T13:01:57;68.86;46.10;81.04;;
52872;Laerm;40124;52.198;9.902;2023-05-08T13:04:22;72.56;45.63;87.79;;
52872;Laerm;40124;52.198;9.902;2023-05-08T13:06:54;70.89;45.63;86.67;;
52872;Laerm;40124;52.198;9.902;2023-05-08T13:09:19;70.44;46.10;83.28;;
52872;Laerm;40124;52.198;9.902;2023-05-08T13:11:45;70.04;45.33;79.42;;
52872;Laerm;40124;52.198;9.902;2023-05-08T13:14:10;71.30;49.08;88.64;;
52872;Laerm;40124;52.198;9.902;2023-05-08T13:16:42;69.51;48.67;80.48;;
52872;Laerm;40124;52.198;9.902;2023-05-08T13:19:08;72.99;49.90;90.40;;
52872;Laerm;40124;52.198;9.902;2023-05-08T13:21:33;70.71;52.26;85.53;;
52872;Laerm;40124;52.198;9.902;2023-05-08T13:23:58;70.59;48.16;80.19;;
52872;Laerm;40124;52.198;9.902;2023-05-08T13:26:23;69.81;46.66;79.69;;
52872;Laerm;40124;52.198;9.902;2023-05-08T13:28:49;68.85;51.14;79.14;;
52872;Laerm;40124;52.198;9.902;2023-05-08T13:31:14;69.77;49.08;80.62;;
52872;Laerm;40124;52.198;9.902;2023-05-08T13:33:39;70.50;48.90;86.17;;
52872;Laerm;40124;52.198;9.902;2023-05-08T13:36:05;70.94;49.98;80.14;;
52872;Laerm;40124;52.198;9.902;2023-05-08T13:38:30;70.89;49.21;84.92;;
52872;Laerm;40124;52.198;9.902;2023-05-08T13:40:55;74.51;53.29;92.71;;
52872;Laerm;40124;52.198;9.902;2023-05-08T13:43:20;68.69;49.29;79.56;;
52872;Laerm;40124;52.198;9.902;2023-05-08T13:45:45;69.89;50.84;82.32;;
52872;Laerm;40124;52.198;9.902;2023-05-08T13:48:10;71.77;54.56;81.78;;
52872;Laerm;40124;52.198;9.902;2023-05-08T13:50:36;70.00;46.13;79.68;;
52872;Laerm;40124;52.198;9.902;2023-05-08T13:53:01;70.03;46.87;82.01;;
52872;Laerm;40124;52.198;9.902;2023-05-08T13:55:26;71.13;51.10;82.04;;
52872;Laerm;40124;52.198;9.902;2023-05-08T13:57:51;69.33;48.23;79.52;;
52872;Laerm;40124;52.198;9.902;2023-05-08T14:00:17;69.15;46.33;82.52;;
52872;Laerm;40124;52.198;9.902;2023-05-08T14:02:42;70.41;47.88;82.89;;
52872;Laerm;40124;52.198;9.902;2023-05-08T14:05:07;71.58;48.00;85.55;;
52872;Laerm;40124;52.198;9.902;2023-05-08T14:07:33;67.99;47.91;77.64;;
52872;Laerm;40124;52.198;9.902;2023-05-08T14:09:58;71.16;49.35;83.45;;
52872;Laerm;40124;52.198;9.902;2023-05-08T14:12:23;66.91;45.04;77.36;;
52872;Laerm;40124;52.198;9.902;2023-05-08T14:14:49;69.82;52.11;78.33;;
52872;Laerm;40124;52.198;9.902;2023-05-08T14:17:14;70.44;52.88;83.06;;
52872;Laerm;40124;52.198;9.902;2023-05-08T14:19:39;69.92;51.21;81.44;;
52872;Laerm;40124;52.198;9.902;2023-05-08T14:22:18;70.07;50.26;79.82;;
52872;Laerm;40124;52.198;9.902;2023-05-08T14:24:43;73.67;52.29;92.77;;
52872;Laerm;40124;52.198;9.902;2023-05-08T14:27:09;69.25;49.10;79.01;;
52872;Laerm;40124;52.198;9.902;2023-05-08T14:29:34;68.29;45.39;78.65;;
52872;Laerm;40124;52.198;9.902;2023-05-08T14:31:59;72.90;47.59;89.03;;